Address 0x734a6f1039b41606feb56667e73ade1b79eae29b 4

 
 
Txn Hash Method
Block
From
To
Value [Txn Fee]
0xecb90e8f158470b55af5b45850f53b0bf6878df9792b533c79ca66e4bdea123cZap Out223741212021-12-10 22:50:13157 days 11 hrs ago0x734a6f1039b41606feb56667e73ade1b79eae29bOUT Zapper.Fi: Quickswap Zap Out0 MATIC0.0102748530
0x5b9f886bf7a1eb1afaa43299ad9eb17af013fe71e3f1d16e7f40d7d1c8408284Approve223741142021-12-10 22:49:59157 days 11 hrs ago0x734a6f1039b41606feb56667e73ade1b79eae29bOUT0xadbf1854e5883eb8aa7baf50705338739e558e5b0 MATIC0.0013825830
0xdd734ab5eb095d3a344ebba4762bcb55427d8f71d0407ff9d493cdcb8949f799Zap In223740592021-12-10 22:48:05157 days 11 hrs ago0x734a6f1039b41606feb56667e73ade1b79eae29bOUT Zapper.Fi: Quickswap Zap In3.2 MATIC0.0146600430
0xb009f2c253087cca6b03f1a924bb977ecc8cd51cd86f8b18fd6019b9dfaa5be00x415565b0223740462021-12-10 22:47:39157 days 11 hrs ago0x734a6f1039b41606feb56667e73ade1b79eae29bOUT 0x: Exchange Proxy0 MATIC0.0064121130
0x8c59ceedb8472e78cdad6d00d9062475bf7962c09f657aee04f3b2ff98613e2fApprove223740402021-12-10 22:47:27157 days 11 hrs ago0x734a6f1039b41606feb56667e73ade1b79eae29bOUT USD Coin0 MATIC0.0017429430
0xd21ad95fb52340809f4465bd7273ed820cde6e16618399499df62d4e90c9dc43Approve223740292021-12-10 22:47:05157 days 11 hrs ago0x734a6f1039b41606feb56667e73ade1b79eae29bOUT USD Coin0 MATIC0.0016228830
0xd28b51ba4150e96b962036c8aa72efe07c0a4519cbe31e6b607a11d7a3a1c9a9Approve223740172021-12-10 22:46:41157 days 11 hrs ago0x734a6f1039b41606feb56667e73ade1b79eae29bOUT USD Coin0 MATIC0.0016228830
0xa0001bb892fdee024649d49aac1ad4f5c73a5224c7efec26454c22c801633b27Zap Out223739802021-12-10 22:45:23157 days 11 hrs ago0x734a6f1039b41606feb56667e73ade1b79eae29bOUT Zapper.Fi: Aave Zap In0 MATIC0.0121573830
0xf4e4825812c9831f90bae20a6d1aa37e2120de5af8a2db26017e9c95206f7991Approve223739612021-12-10 22:44:45157 days 11 hrs ago0x734a6f1039b41606feb56667e73ade1b79eae29bOUT Aave: amUSDC Token0 MATIC0.0010258830
0xc325c2b86adbc64b09dca7e82db85c46d61b2a360ad11eabd023991e5c3129eaZap In223739462021-12-10 22:44:01157 days 11 hrs ago0x734a6f1039b41606feb56667e73ade1b79eae29bOUT Zapper.Fi: Aave Zap In1.1 MATIC0.002680535
0x9e214c6818f88fdbb0b4f4f61663a2b55795eaa9355bab00b10b56fc02653d76Zap Out221667662021-12-05 14:10:52162 days 20 hrs ago0x734a6f1039b41606feb56667e73ade1b79eae29bOUT Zapper.Fi: Aave Zap In0 MATIC0.0012156153
0x4ab5e26e95302a84b7527ffd8afd7f0b5ebcd7de63d61c573e5a2f613cd45e5fApprove221667582021-12-05 14:10:36162 days 20 hrs ago0x734a6f1039b41606feb56667e73ade1b79eae29bOUT Aave: amUSDC Token0 MATIC0.0001025883
0xf686a7d58e3318da5d7a09544ae9c87e548b448a5271e69e4e9b60a9cc477c32Zap In221666012021-12-05 14:05:14162 days 20 hrs ago0x734a6f1039b41606feb56667e73ade1b79eae29bOUT Zapper.Fi: Aave Zap In2 MATIC0.0141409530
0xbf70a1f1c41ec6807b323f59b46b789a40c692f5a83ba8bf42f6f4a7d0303cdaZap Out221665142021-12-05 14:02:12162 days 20 hrs ago0x734a6f1039b41606feb56667e73ade1b79eae29bOUT Zapper.Fi: Aave Zap In0 MATIC0.0111369930
0xcf62a895b20f6cf094e4117effa8326ca972e19bee3e9ea83ed56530fdc5ad65Approve221665062021-12-05 14:01:56162 days 20 hrs ago0x734a6f1039b41606feb56667e73ade1b79eae29bOUT Aave: amUSDC Token0 MATIC0.0010258830
0x4b87fc860cb4a23f4bafd8b9d5f9ed17272909bb1db162d574830f586cb17d600x415565b0221664772021-12-05 14:00:58162 days 20 hrs ago0x734a6f1039b41606feb56667e73ade1b79eae29bOUT 0x: Exchange Proxy0 MATIC0.0060466530
0xa530a7fe39a1bba4afd7b9365eda361ef59e1ef55f931dfc6d58f99db117d565Approve221664712021-12-05 14:00:46162 days 20 hrs ago0x734a6f1039b41606feb56667e73ade1b79eae29bOUT USD Coin0 MATIC0.0017429430
0x94fb5dca534fe70e7f752caea0c8db3fc9a60697b35a5f020a586975b4774befZap In221664592021-12-05 14:00:18162 days 20 hrs ago0x734a6f1039b41606feb56667e73ade1b79eae29bOUT Zapper.Fi: Aave Zap In1.98 MATIC0.0143872530
0x19b4d4fd052f4a1a389d75d53e1b640aa68e2515dc6f089b92fa40d091dacc9cZap Out221661382021-12-05 13:44:50162 days 20 hrs ago0x734a6f1039b41606feb56667e73ade1b79eae29bOUT Zapper.Fi: Quickswap Zap Out0 MATIC0.0099620130
0x811b177505917437bd920dee7586181da7eee323a1a8e45812c606a5ce6ca814Approve221661112021-12-05 13:43:02162 days 20 hrs ago0x734a6f1039b41606feb56667e73ade1b79eae29bOUT0xadbf1854e5883eb8aa7baf50705338739e558e5b0 MATIC0.0013825830
0x6e6fb6bf67d5981621513df4b136b038335cbc830b72e084bca461b860de2736Zap Out221660992021-12-05 13:42:14162 days 20 hrs ago0x734a6f1039b41606feb56667e73ade1b79eae29bOUT Zapper.Fi: Aave Zap In0 MATIC0.010477530
0x75b5ed5512f1bd37e4e9c7918883c0a7ecca03e19c1d0e0ab80df961318264cdApprove221660272021-12-05 13:39:06162 days 20 hrs ago0x734a6f1039b41606feb56667e73ade1b79eae29bOUT Aave: amUSDC Token0 MATIC0.0015388830
0x48514a71f4ee7c3db40a13ba1231c13bfc5423961ae2a0d93e4b1813bcb9bcecZap In221660142021-12-05 13:38:36162 days 20 hrs ago0x734a6f1039b41606feb56667e73ade1b79eae29bOUT Zapper.Fi: Quickswap Zap In3 MATIC0.00932378733
0xc23c72432bfa5dc8940cb1bc4fa786c0f1c608624d34b0803f48be5acb37ab8fZap In221660082021-12-05 13:38:24162 days 20 hrs ago0x734a6f1039b41606feb56667e73ade1b79eae29bOUT Zapper.Fi: Aave Zap In3 MATIC0.01604219133
0x27e87bed84cd52d9ea88f874f6a1830c2ca8a72cd055361d350544e505b5563b0x415565b0218754222021-11-27 21:42:43170 days 12 hrs ago0x734a6f1039b41606feb56667e73ade1b79eae29bOUT 0x: Exchange Proxy0 MATIC0.00628389333.000000001
[ Download CSV Export 
Latest 11 internal transactions
Parent Txn Hash Block From To Value
0xb009f2c253087cca6b03f1a924bb977ecc8cd51cd86f8b18fd6019b9dfaa5be0223740462021-12-10 22:47:39157 days 11 hrs ago 0x: Exchange Proxy Flash Wallet0x734a6f1039b41606feb56667e73ade1b79eae29b5.044461377495798223 MATIC
0x4b87fc860cb4a23f4bafd8b9d5f9ed17272909bb1db162d574830f586cb17d60221664772021-12-05 14:00:58162 days 20 hrs ago 0x: Exchange Proxy Flash Wallet0x734a6f1039b41606feb56667e73ade1b79eae29b2.995541570027114683 MATIC
0x27e87bed84cd52d9ea88f874f6a1830c2ca8a72cd055361d350544e505b5563b218754222021-11-27 21:42:43170 days 12 hrs ago 0x: Exchange Proxy Flash Wallet0x734a6f1039b41606feb56667e73ade1b79eae29b7.609831801349836444 MATIC
0x3a62da15451996c63f0d7bca35d6eccfb530d0d82f61bab3697b756776d19f2b215661412021-11-19 19:31:30178 days 14 hrs ago 0x: Exchange Proxy Flash Wallet0x734a6f1039b41606feb56667e73ade1b79eae29b2.990803397064920786 MATIC
0x3a494c8bcb59100c201d12e5437ec8be27ec55c352ec54bdde0ca8adf6c15fc2212559782021-11-11 18:45:20186 days 15 hrs ago Polygon: WMATIC Token0x734a6f1039b41606feb56667e73ade1b79eae29b0.997793981451317134 MATIC
0x6a7e0950be02397d8338c3810a805d2cb57fab512c23cb0a585bcd7585cb12a1212556982021-11-11 18:33:36186 days 15 hrs ago 0x: Exchange Proxy Flash Wallet0x734a6f1039b41606feb56667e73ade1b79eae29b2.006442974193303647 MATIC
0x34d25694a7b5f31399e5150e85c3e2008fe9f2d21e82134ef14193305ed7fda2204540582021-10-21 14:17:57207 days 19 hrs ago 0x: Exchange Proxy Flash Wallet0x734a6f1039b41606feb56667e73ade1b79eae29b9.975329403088428072 MATIC
0xef4237b6a32e46b363edf2b2d16c982506860a2dd6757b358595c37e808bfc5d204539962021-10-21 14:15:49207 days 19 hrs ago 0x: Exchange Proxy Flash Wallet0x734a6f1039b41606feb56667e73ade1b79eae29b9.980612779538607671 MATIC
0x7dbb0f42eec9fcceff4e0f38c63521255692c53f7e66c4b4c1460a09154f2b12203415832021-10-18 9:04:46211 days 1 hr ago 0x: Exchange Proxy Flash Wallet0x734a6f1039b41606feb56667e73ade1b79eae29b145.364923728910414725 MATIC
0x0e54b02aae40b4cc631b8f5426a9b8fdd1de05f63059b5b0d489239e5804d1f6202960902021-10-17 1:34:15212 days 8 hrs ago Paraswap v5: Augustus Swapper0x734a6f1039b41606feb56667e73ade1b79eae29b159.850678387647012469 MATIC
0x32e1773cfebe4a7c66facdfbea55a3e3020ccf345007ae1ec89c8f265b7d56ed202960472021-10-17 1:32:13212 days 8 hrs ago Paraswap v5: Augustus Swapper0x734a6f1039b41606feb56667e73ade1b79eae29b160.125418916376044461 MATIC
[ Download CSV Export 
Loading

Contract Name:
0 MATIC

Compiler Version
0

Optimization Enabled:
0 MATIC

Other Settings:
-NA-
Block Transaction Gas Used Reward
Age Block Fee Address BC Fee Address Voting Power Jailed Incoming
Block Uncle Number Difficulty Gas Used Reward
Loading
Loading
Make sure to use the "Vote Down" button for any spammy posts, and the "Vote Up" for interesting conversations.